sensor_id;sensor_type;location;lat;lon;timestamp;P1;durP1;ratioP1;P2;durP2;ratioP2
9140;SDS011;46330;50.822;7.126;2023-04-26T00:02:21;8.43;;;3.08;;
9140;SDS011;46330;50.822;7.126;2023-04-26T00:04:50;9.00;;;3.03;;
9140;SDS011;46330;50.822;7.126;2023-04-26T00:07:21;10.05;;;3.20;;
9140;SDS011;46330;50.822;7.126;2023-04-26T00:09:50;8.98;;;3.30;;
9140;SDS011;46330;50.822;7.126;2023-04-26T00:12:20;12.77;;;3.65;;
9140;SDS011;46330;50.822;7.126;2023-04-26T00:14:48;7.95;;;3.80;;
9140;SDS011;46330;50.822;7.126;2023-04-26T00:17:16;10.65;;;3.42;;
9140;SDS011;46330;50.822;7.126;2023-04-26T00:19:43;9.00;;;2.90;;
9140;SDS011;46330;50.822;7.126;2023-04-26T00:22:12;7.53;;;3.25;;
9140;SDS011;46330;50.822;7.126;2023-04-26T00:24:40;8.10;;;3.25;;
9140;SDS011;46330;50.822;7.126;2023-04-26T00:27:08;6.93;;;3.10;;
9140;SDS011;46330;50.822;7.126;2023-04-26T00:29:37;7.55;;;2.97;;
9140;SDS011;46330;50.822;7.126;2023-04-26T00:32:05;8.70;;;3.00;;
9140;SDS011;46330;50.822;7.126;2023-04-26T00:34:34;6.25;;;3.15;;
9140;SDS011;46330;50.822;7.126;2023-04-26T00:37:02;8.82;;;3.17;;
9140;SDS011;46330;50.822;7.126;2023-04-26T00:39:31;8.57;;;3.33;;
9140;SDS011;46330;50.822;7.126;2023-04-26T00:41:58;10.32;;;3.78;;
9140;SDS011;46330;50.822;7.126;2023-04-26T00:44:27;9.25;;;4.22;;
9140;SDS011;46330;50.822;7.126;2023-04-26T00:46:56;11.75;;;3.20;;
9140;SDS011;46330;50.822;7.126;2023-04-26T00:49:24;8.48;;;3.47;;
9140;SDS011;46330;50.822;7.126;2023-04-26T00:51:52;9.18;;;3.53;;
9140;SDS011;46330;50.822;7.126;2023-04-26T00:54:20;9.13;;;3.15;;
9140;SDS011;46330;50.822;7.126;2023-04-26T00:56:49;9.25;;;3.38;;
9140;SDS011;46330;50.822;7.126;2023-04-26T00:59:18;5.82;;;3.08;;
9140;SDS011;46330;50.822;7.126;2023-04-26T01:01:46;10.82;;;3.80;;
9140;SDS011;46330;50.822;7.126;2023-04-26T01:04:16;7.15;;;3.40;;
9140;SDS011;46330;50.822;7.126;2023-04-26T01:06:44;9.00;;;3.05;;
9140;SDS011;46330;50.822;7.126;2023-04-26T01:09:12;8.27;;;3.60;;
9140;SDS011;46330;50.822;7.126;2023-04-26T01:11:41;6.22;;;3.15;;
9140;SDS011;46330;50.822;7.126;2023-04-26T01:14:11;8.15;;;3.05;;
9140;SDS011;46330;50.822;7.126;2023-04-26T01:16:40;9.38;;;3.45;;
9140;SDS011;46330;50.822;7.126;2023-04-26T01:19:12;9.93;;;3.30;;
9140;SDS011;46330;50.822;7.126;2023-04-26T01:21:45;13.85;;;4.15;;
9140;SDS011;46330;50.822;7.126;2023-04-26T01:24:14;12.13;;;3.97;;
9140;SDS011;46330;50.822;7.126;2023-04-26T01:26:42;10.30;;;3.85;;
9140;SDS011;46330;50.822;7.126;2023-04-26T01:29:13;10.73;;;3.90;;
9140;SDS011;46330;50.822;7.126;2023-04-26T01:31:42;8.85;;;3.95;;
9140;SDS011;46330;50.822;7.126;2023-04-26T01:34:10;5.75;;;3.42;;
9140;SDS011;46330;50.822;7.126;2023-04-26T01:36:38;10.90;;;3.70;;
9140;SDS011;46330;50.822;7.126;2023-04-26T01:39:07;7.70;;;3.45;;
9140;SDS011;46330;50.822;7.126;2023-04-26T01:41:36;7.78;;;3.40;;
9140;SDS011;46330;50.822;7.126;2023-04-26T01:44:04;5.95;;;3.25;;
9140;SDS011;46330;50.822;7.126;2023-04-26T01:46:32;8.07;;;3.70;;
9140;SDS011;46330;50.822;7.126;2023-04-26T01:49:00;9.35;;;3.30;;
9140;SDS011;46330;50.822;7.126;2023-04-26T01:51:28;10.40;;;3.65;;
9140;SDS011;46330;50.822;7.126;2023-04-26T01:53:57;11.13;;;3.70;;
9140;SDS011;46330;50.822;7.126;2023-04-26T01:56:25;9.98;;;3.55;;
9140;SDS011;46330;50.822;7.126;2023-04-26T01:58:54;8.10;;;3.47;;
9140;SDS011;46330;50.822;7.126;2023-04-26T02:01:22;9.63;;;3.55;;
9140;SDS011;46330;50.822;7.126;2023-04-26T02:03:50;9.73;;;4.05;;
9140;SDS011;46330;50.822;7.126;2023-04-26T02:06:18;10.98;;;4.07;;
9140;SDS011;46330;50.822;7.126;2023-04-26T02:08:46;10.00;;;4.03;;
9140;SDS011;46330;50.822;7.126;2023-04-26T02:11:15;9.68;;;3.58;;
9140;SDS011;46330;50.822;7.126;2023-04-26T02:13:43;12.43;;;3.58;;
9140;SDS011;46330;50.822;7.126;2023-04-26T02:16:12;9.80;;;4.30;;
9140;SDS011;46330;50.822;7.126;2023-04-26T02:18:41;11.57;;;4.78;;
9140;SDS011;46330;50.822;7.126;2023-04-26T02:21:10;14.65;;;4.65;;
9140;SDS011;46330;50.822;7.126;2023-04-26T02:23:38;11.25;;;4.40;;
9140;SDS011;46330;50.822;7.126;2023-04-26T02:26:08;11.00;;;4.53;;
9140;SDS011;46330;50.822;7.126;2023-04-26T02:28:36;12.98;;;4.55;;
9140;SDS011;46330;50.822;7.126;2023-04-26T02:31:05;9.50;;;4.05;;
9140;SDS011;46330;50.822;7.126;2023-04-26T02:33:34;10.40;;;4.03;;
9140;SDS011;46330;50.822;7.126;2023-04-26T02:36:02;12.02;;;4.45;;
9140;SDS011;46330;50.822;7.126;2023-04-26T02:38:32;9.82;;;4.53;;
9140;SDS011;46330;50.822;7.126;2023-04-26T02:41:03;14.15;;;5.03;;
9140;SDS011;46330;50.822;7.126;2023-04-26T02:43:32;16.88;;;4.85;;
9140;SDS011;46330;50.822;7.126;2023-04-26T02:46:00;13.95;;;4.95;;
9140;SDS011;46330;50.822;7.126;2023-04-26T02:48:29;10.98;;;4.82;;
9140;SDS011;46330;50.822;7.126;2023-04-26T02:50:59;16.00;;;5.90;;
9140;SDS011;46330;50.822;7.126;2023-04-26T02:53:27;15.07;;;5.40;;
9140;SDS011;46330;50.822;7.126;2023-04-26T02:55:54;18.25;;;5.50;;
9140;SDS011;46330;50.822;7.126;2023-04-26T02:58:22;13.77;;;5.50;;
9140;SDS011;46330;50.822;7.126;2023-04-26T03:00:50;14.98;;;5.35;;
9140;SDS011;46330;50.822;7.126;2023-04-26T03:03:20;14.45;;;5.30;;
9140;SDS011;46330;50.822;7.126;2023-04-26T03:05:48;14.88;;;5.82;;
9140;SDS011;46330;50.822;7.126;2023-04-26T03:08:18;14.98;;;5.53;;
9140;SDS011;46330;50.822;7.126;2023-04-26T03:10:46;13.73;;;5.30;;
9140;SDS011;46330;50.822;7.126;2023-04-26T03:13:14;15.70;;;5.32;;
9140;SDS011;46330;50.822;7.126;2023-04-26T03:15:43;16.60;;;5.32;;
9140;SDS011;46330;50.822;7.126;2023-04-26T03:18:11;11.57;;;5.22;;
9140;SDS011;46330;50.822;7.126;2023-04-26T03:20:40;10.50;;;5.10;;
9140;SDS011;46330;50.822;7.126;2023-04-26T03:23:08;13.32;;;4.57;;
9140;SDS011;46330;50.822;7.126;2023-04-26T03:25:37;12.20;;;4.47;;
9140;SDS011;46330;50.822;7.126;2023-04-26T03:28:05;13.95;;;5.38;;
9140;SDS011;46330;50.822;7.126;2023-04-26T03:30:34;13.65;;;4.47;;
9140;SDS011;46330;50.822;7.126;2023-04-26T03:33:03;12.05;;;4.90;;
9140;SDS011;46330;50.822;7.126;2023-04-26T03:35:31;11.85;;;5.18;;
9140;SDS011;46330;50.822;7.126;2023-04-26T03:37:59;16.40;;;4.93;;
9140;SDS011;46330;50.822;7.126;2023-04-26T03:40:27;15.85;;;5.35;;
9140;SDS011;46330;50.822;7.126;2023-04-26T03:42:56;14.55;;;6.07;;
9140;SDS011;46330;50.822;7.126;2023-04-26T03:45:24;16.38;;;5.50;;
9140;SDS011;46330;50.822;7.126;2023-04-26T03:47:52;18.05;;;5.30;;
9140;SDS011;46330;50.822;7.126;2023-04-26T03:50:21;9.32;;;4.68;;
9140;SDS011;46330;50.822;7.126;2023-04-26T03:52:49;10.00;;;4.28;;
9140;SDS011;46330;50.822;7.126;2023-04-26T03:55:17;13.73;;;4.40;;
9140;SDS011;46330;50.822;7.126;2023-04-26T03:57:45;8.85;;;4.30;;
9140;SDS011;46330;50.822;7.126;2023-04-26T04:00:15;9.30;;;4.43;;
9140;SDS011;46330;50.822;7.126;2023-04-26T04:02:43;8.75;;;4.18;;
9140;SDS011;46330;50.822;7.126;2023-04-26T04:05:20;8.85;;;4.22;;
9140;SDS011;46330;50.822;7.126;2023-04-26T04:07:48;9.63;;;4.75;;
9140;SDS011;46330;50.822;7.126;2023-04-26T04:10:18;12.88;;;4.75;;
9140;SDS011;46330;50.822;7.126;2023-04-26T04:12:48;8.90;;;4.32;;
9140;SDS011;46330;50.822;7.126;2023-04-26T04:15:18;13.18;;;5.78;;
9140;SDS011;46330;50.822;7.126;2023-04-26T04:17:47;12.93;;;6.35;;
9140;SDS011;46330;50.822;7.126;2023-04-26T04:20:16;13.15;;;5.88;;
9140;SDS011;46330;50.822;7.126;2023-04-26T04:22:46;12.75;;;5.85;;
9140;SDS011;46330;50.822;7.126;2023-04-26T04:25:14;9.77;;;5.55;;
9140;SDS011;46330;50.822;7.126;2023-04-26T04:27:42;12.23;;;5.35;;
9140;SDS011;46330;50.822;7.126;2023-04-26T04:30:11;16.10;;;5.80;;
9140;SDS011;46330;50.822;7.126;2023-04-26T04:32:41;17.63;;;5.32;;
9140;SDS011;46330;50.822;7.126;2023-04-26T04:35:13;12.50;;;5.18;;
9140;SDS011;46330;50.822;7.126;2023-04-26T04:37:41;11.38;;;5.20;;
9140;SDS011;46330;50.822;7.126;2023-04-26T04:40:12;17.85;;;5.40;;
9140;SDS011;46330;50.822;7.126;2023-04-26T04:42:43;11.68;;;5.15;;
9140;SDS011;46330;50.822;7.126;2023-04-26T04:45:13;15.23;;;6.57;;
9140;SDS011;46330;50.822;7.126;2023-04-26T04:47:43;12.00;;;4.95;;
9140;SDS011;46330;50.822;7.126;2023-04-26T04:50:11;10.40;;;5.15;;
9140;SDS011;46330;50.822;7.126;2023-04-26T04:52:41;10.25;;;4.70;;
9140;SDS011;46330;50.822;7.126;2023-04-26T04:55:10;9.70;;;5.05;;
9140;SDS011;46330;50.822;7.126;2023-04-26T04:57:38;12.45;;;4.70;;
9140;SDS011;46330;50.822;7.126;2023-04-26T05:00:09;9.40;;;5.10;;
9140;SDS011;46330;50.822;7.126;2023-04-26T05:03:02;11.00;;;4.72;;
9140;SDS011;46330;50.822;7.126;2023-04-26T05:05:30;10.85;;;5.20;;
9140;SDS011;46330;50.822;7.126;2023-04-26T05:07:58;10.35;;;4.93;;
9140;SDS011;46330;50.822;7.126;2023-04-26T05:10:26;10.48;;;4.53;;
9140;SDS011;46330;50.822;7.126;2023-04-26T05:12:54;12.52;;;4.97;;
9140;SDS011;46330;50.822;7.126;2023-04-26T05:15:22;13.95;;;5.47;;
9140;SDS011;46330;50.822;7.126;2023-04-26T05:17:50;10.65;;;5.10;;
9140;SDS011;46330;50.822;7.126;2023-04-26T05:20:23;14.55;;;4.97;;
9140;SDS011;46330;50.822;7.126;2023-04-26T05:22:52;13.10;;;5.82;;
9140;SDS011;46330;50.822;7.126;2023-04-26T05:25:20;12.02;;;5.35;;
9140;SDS011;46330;50.822;7.126;2023-04-26T05:27:54;9.38;;;4.30;;
9140;SDS011;46330;50.822;7.126;2023-04-26T05:30:40;9.75;;;4.30;;
9140;SDS011;46330;50.822;7.126;2023-04-26T05:33:23;10.77;;;4.70;;
9140;SDS011;46330;50.822;7.126;2023-04-26T05:36:06;10.98;;;4.22;;
9140;SDS011;46330;50.822;7.126;2023-04-26T05:38:35;7.30;;;3.85;;
9140;SDS011;46330;50.822;7.126;2023-04-26T05:41:03;7.82;;;3.75;;
9140;SDS011;46330;50.822;7.126;2023-04-26T05:43:31;9.13;;;4.13;;
9140;SDS011;46330;50.822;7.126;2023-04-26T05:45:59;8.23;;;4.10;;
9140;SDS011;46330;50.822;7.126;2023-04-26T05:48:28;10.85;;;4.20;;
9140;SDS011;46330;50.822;7.126;2023-04-26T05:50:56;6.72;;;3.70;;
9140;SDS011;46330;50.822;7.126;2023-04-26T05:53:25;10.80;;;4.15;;
9140;SDS011;46330;50.822;7.126;2023-04-26T05:55:53;13.57;;;4.65;;
9140;SDS011;46330;50.822;7.126;2023-04-26T05:58:22;8.23;;;4.03;;
9140;SDS011;46330;50.822;7.126;2023-04-26T06:00:50;12.43;;;4.35;;
9140;SDS011;46330;50.822;7.126;2023-04-26T06:03:18;8.98;;;4.05;;
9140;SDS011;46330;50.822;7.126;2023-04-26T06:05:47;11.27;;;4.50;;
9140;SDS011;46330;50.822;7.126;2023-04-26T06:08:15;10.13;;;4.65;;
9140;SDS011;46330;50.822;7.126;2023-04-26T06:10:44;11.88;;;4.38;;
9140;SDS011;46330;50.822;7.126;2023-04-26T06:13:12;10.00;;;4.53;;
9140;SDS011;46330;50.822;7.126;2023-04-26T06:15:41;9.27;;;4.60;;
9140;SDS011;46330;50.822;7.126;2023-04-26T06:18:09;11.70;;;4.75;;
9140;SDS011;46330;50.822;7.126;2023-04-26T06:20:37;9.93;;;5.10;;
9140;SDS011;46330;50.822;7.126;2023-04-26T06:23:06;11.43;;;5.30;;
9140;SDS011;46330;50.822;7.126;2023-04-26T06:25:34;11.13;;;5.35;;
9140;SDS011;46330;50.822;7.126;2023-04-26T06:28:04;9.63;;;4.80;;
9140;SDS011;46330;50.822;7.126;2023-04-26T06:30:32;10.85;;;4.85;;
9140;SDS011;46330;50.822;7.126;2023-04-26T06:33:01;10.50;;;5.03;;
9140;SDS011;46330;50.822;7.126;2023-04-26T06:35:31;11.40;;;5.30;;
9140;SDS011;46330;50.822;7.126;2023-04-26T06:38:00;10.48;;;5.47;;
9140;SDS011;46330;50.822;7.126;2023-04-26T06:40:28;11.75;;;6.32;;
9140;SDS011;46330;50.822;7.126;2023-04-26T06:42:56;10.98;;;5.70;;
9140;SDS011;46330;50.822;7.126;2023-04-26T06:45:34;11.40;;;5.43;;
9140;SDS011;46330;50.822;7.126;2023-04-26T06:48:03;11.10;;;6.10;;
9140;SDS011;46330;50.822;7.126;2023-04-26T06:50:32;14.38;;;6.25;;
9140;SDS011;46330;50.822;7.126;2023-04-26T06:53:03;10.55;;;6.15;;
9140;SDS011;46330;50.822;7.126;2023-04-26T06:55:31;10.65;;;5.63;;
9140;SDS011;46330;50.822;7.126;2023-04-26T06:57:59;13.02;;;5.68;;
9140;SDS011;46330;50.822;7.126;2023-04-26T07:00:27;15.15;;;6.95;;
9140;SDS011;46330;50.822;7.126;2023-04-26T07:02:57;12.93;;;6.07;;
9140;SDS011;46330;50.822;7.126;2023-04-26T07:05:25;15.18;;;6.70;;
9140;SDS011;46330;50.822;7.126;2023-04-26T07:07:53;14.57;;;6.40;;
9140;SDS011;46330;50.822;7.126;2023-04-26T07:10:21;12.88;;;5.60;;
9140;SDS011;46330;50.822;7.126;2023-04-26T07:12:49;12.20;;;6.20;;
9140;SDS011;46330;50.822;7.126;2023-04-26T07:15:17;11.98;;;6.15;;
9140;SDS011;46330;50.822;7.126;2023-04-26T10:10:49;9.63;;;3.95;;
9140;SDS011;46330;50.822;7.126;2023-04-26T10:13:17;8.07;;;3.60;;
9140;SDS011;46330;50.822;7.126;2023-04-26T10:15:46;8.27;;;3.67;;
9140;SDS011;46330;50.822;7.126;2023-04-26T10:18:14;11.77;;;4.03;;
9140;SDS011;46330;50.822;7.126;2023-04-26T10:20:43;9.40;;;3.83;;
9140;SDS011;46330;50.822;7.126;2023-04-26T10:23:16;7.30;;;3.15;;
9140;SDS011;46330;50.822;7.126;2023-04-26T10:25:46;8.23;;;3.25;;
9140;SDS011;46330;50.822;7.126;2023-04-26T10:28:16;11.43;;;2.88;;
9140;SDS011;46330;50.822;7.126;2023-04-26T10:30:53;7.43;;;2.72;;
9140;SDS011;46330;50.822;7.126;2023-04-26T10:33:23;7.88;;;2.95;;
9140;SDS011;46330;50.822;7.126;2023-04-26T10:36:01;10.48;;;2.80;;
9140;SDS011;46330;50.822;7.126;2023-04-26T10:38:31;7.13;;;2.80;;
9140;SDS011;46330;50.822;7.126;2023-04-26T10:43:59;7.55;;;2.25;;
9140;SDS011;46330;50.822;7.126;2023-04-26T10:46:43;6.30;;;2.60;;
9140;SDS011;46330;50.822;7.126;2023-04-26T10:49:17;8.23;;;4.27;;
9140;SDS011;46330;50.822;7.126;2023-04-26T10:54:48;8.60;;;2.72;;
9140;SDS011;46330;50.822;7.126;2023-04-26T10:57:18;8.77;;;2.97;;
9140;SDS011;46330;50.822;7.126;2023-04-26T11:02:55;8.27;;;3.03;;
9140;SDS011;46330;50.822;7.126;2023-04-26T11:08:18;9.23;;;3.53;;
9140;SDS011;46330;50.822;7.126;2023-04-26T11:10:51;7.78;;;3.50;;
9140;SDS011;46330;50.822;7.126;2023-04-26T11:13:24;9.75;;;3.50;;
9140;SDS011;46330;50.822;7.126;2023-04-26T11:15:57;9.13;;;4.22;;
9140;SDS011;46330;50.822;7.126;2023-04-26T11:18:28;5.97;;;3.28;;
9140;SDS011;46330;50.822;7.126;2023-04-26T12:09:40;10.97;;;3.27;;
9140;SDS011;46330;50.822;7.126;2023-04-26T12:12:08;8.48;;;2.95;;
9140;SDS011;46330;50.822;7.126;2023-04-26T12:14:38;6.90;;;2.85;;
9140;SDS011;46330;50.822;7.126;2023-04-26T12:17:07;6.85;;;2.72;;
9140;SDS011;46330;50.822;7.126;2023-04-26T12:19:36;10.93;;;4.63;;
9140;SDS011;46330;50.822;7.126;2023-04-26T12:22:05;7.07;;;2.92;;
9140;SDS011;46330;50.822;7.126;2023-04-26T12:24:34;6.72;;;2.97;;
9140;SDS011;46330;50.822;7.126;2023-04-26T12:27:04;7.80;;;3.00;;
9140;SDS011;46330;50.822;7.126;2023-04-26T12:29:33;7.20;;;3.20;;
9140;SDS011;46330;50.822;7.126;2023-04-26T12:32:02;4.85;;;3.00;;
9140;SDS011;46330;50.822;7.126;2023-04-26T12:34:30;8.52;;;3.92;;
9140;SDS011;46330;50.822;7.126;2023-04-26T12:36:58;6.50;;;3.67;;
9140;SDS011;46330;50.822;7.126;2023-04-26T12:39:26;9.85;;;3.28;;
9140;SDS011;46330;50.822;7.126;2023-04-26T12:41:54;6.47;;;3.20;;
9140;SDS011;46330;50.822;7.126;2023-04-26T12:44:23;8.77;;;3.35;;
9140;SDS011;46330;50.822;7.126;2023-04-26T12:46:51;9.63;;;3.92;;
9140;SDS011;46330;50.822;7.126;2023-04-26T12:49:19;8.73;;;3.53;;
9140;SDS011;46330;50.822;7.126;2023-04-26T12:51:47;6.93;;;3.15;;
9140;SDS011;46330;50.822;7.126;2023-04-26T12:54:15;11.20;;;3.70;;
9140;SDS011;46330;50.822;7.126;2023-04-26T12:56:43;7.43;;;3.40;;
9140;SDS011;46330;50.822;7.126;2023-04-26T12:59:11;10.02;;;3.80;;
9140;SDS011;46330;50.822;7.126;2023-04-26T13:01:40;6.82;;;3.47;;
9140;SDS011;46330;50.822;7.126;2023-04-26T13:04:08;7.82;;;3.45;;
9140;SDS011;46330;50.822;7.126;2023-04-26T13:06:37;9.88;;;3.83;;
9140;SDS011;46330;50.822;7.126;2023-04-26T13:09:05;5.72;;;3.63;;
9140;SDS011;46330;50.822;7.126;2023-04-26T13:11:34;6.93;;;3.60;;
9140;SDS011;46330;50.822;7.126;2023-04-26T13:14:02;8.13;;;3.60;;
9140;SDS011;46330;50.822;7.126;2023-04-26T13:16:32;8.43;;;3.47;;
9140;SDS011;46330;50.822;7.126;2023-04-26T13:19:01;9.90;;;3.65;;
9140;SDS011;46330;50.822;7.126;2023-04-26T13:21:29;6.53;;;3.45;;
9140;SDS011;46330;50.822;7.126;2023-04-26T13:23:57;11.43;;;3.78;;
9140;SDS011;46330;50.822;7.126;2023-04-26T13:26:25;10.38;;;3.70;;
9140;SDS011;46330;50.822;7.126;2023-04-26T13:28:53;9.77;;;3.60;;
9140;SDS011;46330;50.822;7.126;2023-04-26T13:31:22;8.50;;;3.67;;
9140;SDS011;46330;50.822;7.126;2023-04-26T13:33:50;9.60;;;3.50;;
9140;SDS011;46330;50.822;7.126;2023-04-26T13:36:19;5.85;;;3.63;;
9140;SDS011;46330;50.822;7.126;2023-04-26T13:38:47;7.63;;;4.10;;
9140;SDS011;46330;50.822;7.126;2023-04-26T13:41:15;9.75;;;3.95;;
9140;SDS011;46330;50.822;7.126;2023-04-26T13:43:43;7.88;;;3.85;;
9140;SDS011;46330;50.822;7.126;2023-04-26T13:46:11;6.13;;;4.05;;
9140;SDS011;46330;50.822;7.126;2023-04-26T13:48:39;10.32;;;4.28;;
9140;SDS011;46330;50.822;7.126;2023-04-26T13:51:07;8.60;;;5.35;;
9140;SDS011;46330;50.822;7.126;2023-04-26T13:53:38;9.38;;;3.95;;
9140;SDS011;46330;50.822;7.126;2023-04-26T13:56:06;8.13;;;3.80;;
9140;SDS011;46330;50.822;7.126;2023-04-26T13:58:34;6.93;;;4.18;;
9140;SDS011;46330;50.822;7.126;2023-04-26T14:01:02;11.23;;;4.22;;
9140;SDS011;46330;50.822;7.126;2023-04-26T14:03:31;7.95;;;3.28;;
9140;SDS011;46330;50.822;7.126;2023-04-26T14:05:59;7.03;;;3.35;;
9140;SDS011;46330;50.822;7.126;2023-04-26T14:08:28;6.60;;;3.10;;
9140;SDS011;46330;50.822;7.126;2023-04-26T14:10:58;9.07;;;3.30;;
9140;SDS011;46330;50.822;7.126;2023-04-26T14:13:25;7.55;;;3.35;;
9140;SDS011;46330;50.822;7.126;2023-04-26T14:15:54;10.00;;;3.20;;
9140;SDS011;46330;50.822;7.126;2023-04-26T14:18:22;5.43;;;3.22;;
9140;SDS011;46330;50.822;7.126;2023-04-26T14:20:50;7.57;;;3.00;;
9140;SDS011;46330;50.822;7.126;2023-04-26T14:23:19;10.20;;;3.25;;
9140;SDS011;46330;50.822;7.126;2023-04-26T14:25:49;7.85;;;3.28;;
9140;SDS011;46330;50.822;7.126;2023-04-26T14:28:19;8.60;;;2.97;;
9140;SDS011;46330;50.822;7.126;2023-04-26T14:30:47;7.65;;;3.28;;
9140;SDS011;46330;50.822;7.126;2023-04-26T14:33:15;9.23;;;3.20;;
9140;SDS011;46330;50.822;7.126;2023-04-26T14:35:43;11.05;;;3.33;;
9140;SDS011;46330;50.822;7.126;2023-04-26T14:38:11;8.65;;;3.28;;
9140;SDS011;46330;50.822;7.126;2023-04-26T14:40:39;8.38;;;3.80;;
9140;SDS011;46330;50.822;7.126;2023-04-26T14:43:07;8.52;;;3.47;;
9140;SDS011;46330;50.822;7.126;2023-04-26T14:45:37;7.15;;;3.60;;
9140;SDS011;46330;50.822;7.126;2023-04-26T14:48:10;10.60;;;3.28;;
9140;SDS011;46330;50.822;7.126;2023-04-26T14:50:38;6.63;;;3.00;;
9140;SDS011;46330;50.822;7.126;2023-04-26T14:53:06;6.05;;;3.08;;
9140;SDS011;46330;50.822;7.126;2023-04-26T14:55:35;7.55;;;3.00;;
9140;SDS011;46330;50.822;7.126;2023-04-26T14:58:02;8.50;;;3.65;;
9140;SDS011;46330;50.822;7.126;2023-04-26T15:00:30;6.63;;;3.60;;
9140;SDS011;46330;50.822;7.126;2023-04-26T15:03:00;6.07;;;3.40;;
9140;SDS011;46330;50.822;7.126;2023-04-26T15:05:28;8.02;;;2.97;;
9140;SDS011;46330;50.822;7.126;2023-04-26T15:07:56;8.77;;;3.35;;
9140;SDS011;46330;50.822;7.126;2023-04-26T15:10:24;8.27;;;3.70;;
9140;SDS011;46330;50.822;7.126;2023-04-26T15:12:52;15.05;;;3.42;;
9140;SDS011;46330;50.822;7.126;2023-04-26T15:15:19;9.52;;;3.63;;
9140;SDS011;46330;50.822;7.126;2023-04-26T15:17:48;8.07;;;3.55;;
9140;SDS011;46330;50.822;7.126;2023-04-26T15:20:17;10.18;;;3.67;;
9140;SDS011;46330;50.822;7.126;2023-04-26T15:22:45;8.38;;;3.90;;
9140;SDS011;46330;50.822;7.126;2023-04-26T15:25:14;8.75;;;3.70;;
9140;SDS011;46330;50.822;7.126;2023-04-26T15:27:42;7.80;;;3.60;;
9140;SDS011;46330;50.822;7.126;2023-04-26T15:30:11;9.20;;;3.38;;
9140;SDS011;46330;50.822;7.126;2023-04-26T15:32:39;9.27;;;3.35;;
9140;SDS011;46330;50.822;7.126;2023-04-26T15:35:09;9.00;;;3.50;;
9140;SDS011;46330;50.822;7.126;2023-04-26T15:37:40;10.05;;;3.97;;
9140;SDS011;46330;50.822;7.126;2023-04-26T15:40:09;8.75;;;3.35;;
9140;SDS011;46330;50.822;7.126;2023-04-26T15:42:38;9.30;;;3.80;;
9140;SDS011;46330;50.822;7.126;2023-04-26T15:45:06;8.65;;;3.55;;
9140;SDS011;46330;50.822;7.126;2023-04-26T15:47:35;8.23;;;3.13;;
9140;SDS011;46330;50.822;7.126;2023-04-26T15:50:03;7.03;;;3.38;;
9140;SDS011;46330;50.822;7.126;2023-04-26T15:52:33;8.50;;;3.28;;
9140;SDS011;46330;50.822;7.126;2023-04-26T15:55:06;6.18;;;3.28;;
9140;SDS011;46330;50.822;7.126;2023-04-26T15:57:35;9.02;;;3.53;;
9140;SDS011;46330;50.822;7.126;2023-04-26T16:00:03;7.90;;;3.50;;
9140;SDS011;46330;50.822;7.126;2023-04-26T16:02:34;15.10;;;3.72;;
9140;SDS011;46330;50.822;7.126;2023-04-26T16:05:02;8.07;;;3.63;;
9140;SDS011;46330;50.822;7.126;2023-04-26T16:07:32;7.68;;;3.10;;
9140;SDS011;46330;50.822;7.126;2023-04-26T16:10:00;9.10;;;3.42;;
9140;SDS011;46330;50.822;7.126;2023-04-26T16:12:29;11.73;;;4.15;;
9140;SDS011;46330;50.822;7.126;2023-04-26T16:14:57;8.05;;;3.28;;
9140;SDS011;46330;50.822;7.126;2023-04-26T16:17:25;10.07;;;3.90;;
9140;SDS011;46330;50.822;7.126;2023-04-26T16:19:53;6.43;;;3.60;;
9140;SDS011;46330;50.822;7.126;2023-04-26T16:22:21;8.02;;;3.20;;
9140;SDS011;46330;50.822;7.126;2023-04-26T16:24:49;9.88;;;3.35;;
9140;SDS011;46330;50.822;7.126;2023-04-26T16:27:17;6.07;;;3.03;;
9140;SDS011;46330;50.822;7.126;2023-04-26T16:29:47;6.55;;;3.33;;
9140;SDS011;46330;50.822;7.126;2023-04-26T16:32:15;8.88;;;3.60;;
9140;SDS011;46330;50.822;7.126;2023-04-26T16:34:43;8.30;;;3.47;;
9140;SDS011;46330;50.822;7.126;2023-04-26T16:37:11;9.27;;;3.38;;
9140;SDS011;46330;50.822;7.126;2023-04-26T16:39:40;7.45;;;3.55;;
9140;SDS011;46330;50.822;7.126;2023-04-26T16:42:07;8.07;;;2.97;;
9140;SDS011;46330;50.822;7.126;2023-04-26T16:44:35;6.95;;;3.08;;
9140;SDS011;46330;50.822;7.126;2023-04-26T16:47:05;9.52;;;3.17;;
9140;SDS011;46330;50.822;7.126;2023-04-26T16:49:33;8.40;;;3.00;;
9140;SDS011;46330;50.822;7.126;2023-04-26T16:52:01;10.93;;;3.53;;
9140;SDS011;46330;50.822;7.126;2023-04-26T16:54:29;8.98;;;3.15;;
9140;SDS011;46330;50.822;7.126;2023-04-26T16:56:57;8.25;;;3.10;;
9140;SDS011;46330;50.822;7.126;2023-04-26T16:59:25;8.13;;;3.08;;
9140;SDS011;46330;50.822;7.126;2023-04-26T17:01:53;7.80;;;3.30;;
9140;SDS011;46330;50.822;7.126;2023-04-26T17:04:23;8.82;;;3.25;;
9140;SDS011;46330;50.822;7.126;2023-04-26T17:06:51;7.97;;;2.90;;
9140;SDS011;46330;50.822;7.126;2023-04-26T17:09:19;8.90;;;3.10;;
9140;SDS011;46330;50.822;7.126;2023-04-26T17:11:47;9.82;;;3.10;;
9140;SDS011;46330;50.822;7.126;2023-04-26T17:14:15;8.95;;;3.25;;
9140;SDS011;46330;50.822;7.126;2023-04-26T17:16:43;7.32;;;2.92;;
9140;SDS011;46330;50.822;7.126;2023-04-26T17:19:11;7.15;;;2.75;;
9140;SDS011;46330;50.822;7.126;2023-04-26T17:21:40;5.32;;;3.10;;
9140;SDS011;46330;50.822;7.126;2023-04-26T17:24:08;6.32;;;2.47;;
9140;SDS011;46330;50.822;7.126;2023-04-26T17:26:36;8.20;;;2.78;;
9140;SDS011;46330;50.822;7.126;2023-04-26T17:29:04;8.57;;;3.00;;
9140;SDS011;46330;50.822;7.126;2023-04-26T17:31:32;6.65;;;2.72;;
9140;SDS011;46330;50.822;7.126;2023-04-26T17:34:00;6.90;;;2.70;;
9140;SDS011;46330;50.822;7.126;2023-04-26T17:36:30;8.18;;;2.95;;
9140;SDS011;46330;50.822;7.126;2023-04-26T17:38:59;7.90;;;3.08;;
9140;SDS011;46330;50.822;7.126;2023-04-26T17:41:27;7.07;;;2.90;;
9140;SDS011;46330;50.822;7.126;2023-04-26T17:43:55;7.70;;;2.83;;
9140;SDS011;46330;50.822;7.126;2023-04-26T17:46:23;7.95;;;3.05;;
9140;SDS011;46330;50.822;7.126;2023-04-26T17:48:51;10.65;;;3.42;;
9140;SDS011;46330;50.822;7.126;2023-04-26T17:51:19;9.15;;;3.78;;
9140;SDS011;46330;50.822;7.126;2023-04-26T17:53:47;7.55;;;2.90;;
9140;SDS011;46330;50.822;7.126;2023-04-26T17:56:16;7.57;;;3.05;;
9140;SDS011;46330;50.822;7.126;2023-04-26T17:58:44;9.82;;;3.50;;
9140;SDS011;46330;50.822;7.126;2023-04-26T18:01:12;9.65;;;2.95;;
9140;SDS011;46330;50.822;7.126;2023-04-26T18:03:40;7.55;;;3.30;;
9140;SDS011;46330;50.822;7.126;2023-04-26T18:06:08;8.07;;;3.10;;
9140;SDS011;46330;50.822;7.126;2023-04-26T18:08:36;7.55;;;2.85;;
9140;SDS011;46330;50.822;7.126;2023-04-26T18:11:04;5.75;;;2.65;;
9140;SDS011;46330;50.822;7.126;2023-04-26T18:13:34;9.93;;;3.13;;
9140;SDS011;46330;50.822;7.126;2023-04-26T18:16:01;8.63;;;3.10;;
9140;SDS011;46330;50.822;7.126;2023-04-26T18:18:29;6.95;;;3.20;;
9140;SDS011;46330;50.822;7.126;2023-04-26T18:20:57;6.93;;;2.80;;
9140;SDS011;46330;50.822;7.126;2023-04-26T18:23:25;9.38;;;2.90;;
9140;SDS011;46330;50.822;7.126;2023-04-26T18:25:53;7.95;;;3.00;;
9140;SDS011;46330;50.822;7.126;2023-04-26T18:28:21;10.10;;;3.08;;
9140;SDS011;46330;50.822;7.126;2023-04-26T18:30:50;8.55;;;2.90;;
9140;SDS011;46330;50.822;7.126;2023-04-26T18:33:22;8.18;;;2.80;;
9140;SDS011;46330;50.822;7.126;2023-04-26T18:35:50;8.13;;;2.72;;
9140;SDS011;46330;50.822;7.126;2023-04-26T18:38:19;7.68;;;2.67;;
9140;SDS011;46330;50.822;7.126;2023-04-26T18:40:47;10.82;;;2.70;;
9140;SDS011;46330;50.822;7.126;2023-04-26T18:43:16;6.25;;;2.40;;
9140;SDS011;46330;50.822;7.126;2023-04-26T18:45:44;4.47;;;2.35;;
9140;SDS011;46330;50.822;7.126;2023-04-26T18:48:13;5.55;;;2.22;;
9140;SDS011;46330;50.822;7.126;2023-04-26T18:50:47;5.97;;;2.28;;
9140;SDS011;46330;50.822;7.126;2023-04-26T18:53:16;7.55;;;2.35;;
9140;SDS011;46330;50.822;7.126;2023-04-26T18:55:45;7.03;;;2.65;;
9140;SDS011;46330;50.822;7.126;2023-04-26T18:58:13;8.82;;;3.10;;
9140;SDS011;46330;50.822;7.126;2023-04-26T19:00:42;8.30;;;2.88;;